createdAt,value
2022-07-28T00:00:58.037Z,149250.66
2022-07-28T00:02:00.209Z,149249.44
2022-07-28T00:03:02.431Z,149231.19
2022-07-28T00:04:04.505Z,149228.78
2022-07-28T00:05:06.784Z,149239.75
2022-07-28T00:06:09.725Z,149243.38
2022-07-28T00:07:11.992Z,149245.81
2022-07-28T00:08:13.972Z,149228.78
2022-07-28T00:09:15.936Z,149232.41
2022-07-28T00:10:17.907Z,149238.53
2022-07-28T00:11:19.933Z,149250.66
2022-07-28T00:12:21.970Z,149245.81
2022-07-28T00:13:23.953Z,149238.53
2022-07-28T00:14:26.064Z,149242.16
2022-07-28T00:15:28.102Z,149244.59
2022-07-28T00:16:30.167Z,149248.25
2022-07-28T00:17:32.460Z,149243.38
2022-07-28T00:18:34.422Z,149233.63
2022-07-28T00:19:36.415Z,149236.09
2022-07-28T00:20:38.396Z,149228.78
2022-07-28T00:21:40.416Z,149228.78
2022-07-28T00:22:43.090Z,149211.78
2022-07-28T00:23:45.088Z,149204.50
2022-07-28T00:24:47.097Z,149192.31
2022-07-28T00:25:51.224Z,149170.47
2022-07-28T00:26:53.353Z,149153.44
2022-07-28T00:27:55.309Z,149148.56
2022-07-28T00:28:57.294Z,149153.44
2022-07-28T00:29:59.265Z,149151.00
2022-07-28T00:31:05.785Z,149112.13
2022-07-28T00:32:12.399Z,149138.88
2022-07-28T00:33:14.648Z,149138.88
2022-07-28T00:34:16.984Z,149138.88
2022-07-28T00:35:25.204Z,149148.56
2022-07-28T00:36:33.159Z,149151.00
2022-07-28T00:37:35.163Z,149149.78
2022-07-28T00:38:37.333Z,149142.50
2022-07-28T00:39:43.809Z,149140.06
2022-07-28T00:41:04.206Z,149102.38
2022-07-28T00:42:06.276Z,149082.91
2022-07-28T00:43:08.223Z,149102.38
2022-07-28T00:44:10.709Z,149114.53
2022-07-28T00:45:12.910Z,149151.00
2022-07-28T00:46:15.840Z,149146.16
2022-07-28T00:47:20.039Z,149146.16
2022-07-28T00:48:22.047Z,149136.44
2022-07-28T00:49:24.190Z,149121.81
2022-07-28T00:50:26.210Z,149107.25
2022-07-28T00:51:28.756Z,149121.81
2022-07-28T00:52:30.777Z,149135.19
2022-07-28T00:53:32.755Z,149125.47
2022-07-28T00:54:36.961Z,149138.88
2022-07-28T00:56:05.353Z,149132.75
2022-07-28T00:57:01.358Z,149118.19
2022-07-28T00:58:03.339Z,149116.97
2022-07-28T00:59:05.359Z,149113.34
2022-07-28T01:00:07.758Z,149112.13
2022-07-28T01:01:10.630Z,149096.28
2022-07-28T01:02:13.942Z,149087.75
2022-07-28T01:03:16.116Z,149078.06
2022-07-28T01:04:18.721Z,149063.44
2022-07-28T01:05:43.116Z,149063.44
2022-07-28T01:06:49.075Z,149056.16
2022-07-28T01:07:53.947Z,149042.81
2022-07-28T01:08:58.880Z,149044.03
2022-07-28T01:10:08.773Z,149057.38
2022-07-28T01:11:16.614Z,149063.44
2022-07-28T01:12:25.538Z,149048.88
2022-07-28T01:13:47.790Z,149065.88
2022-07-28T01:14:52.435Z,149075.63
2022-07-28T01:15:57.261Z,149080.47
2022-07-28T01:17:05.006Z,149073.19
2022-07-28T01:18:11.004Z,149057.38
2022-07-28T01:19:31.710Z,149062.22
2022-07-28T01:20:33.663Z,149063.44
2022-07-28T01:21:37.869Z,149056.16
2022-07-28T01:22:58.681Z,149053.75
2022-07-28T01:24:14.205Z,149048.88
2022-07-28T01:25:16.371Z,149058.59
2022-07-28T01:26:30.542Z,149070.75
2022-07-28T01:27:38.292Z,149080.47
2022-07-28T01:28:40.230Z,149082.91
2022-07-28T01:29:54.135Z,149082.91
2022-07-28T01:31:02.450Z,149078.06
2022-07-28T01:32:10.748Z,149080.47
2022-07-28T01:33:17.295Z,149078.06
2022-07-28T01:34:23.592Z,149073.19
2022-07-28T01:35:27.858Z,149073.19
2022-07-28T01:36:33.080Z,149065.88
2022-07-28T01:37:39.540Z,149053.75
2022-07-28T01:38:42.649Z,149050.09
2022-07-28T01:39:45.699Z,149044.03
2022-07-28T01:40:48.266Z,149048.88
2022-07-28T01:41:53.272Z,149037.97
2022-07-28T01:42:57.051Z,149041.59
2022-07-28T01:44:01.084Z,149039.19
2022-07-28T01:45:04.187Z,149035.50
2022-07-28T01:46:06.765Z,149023.34
2022-07-28T01:47:09.459Z,149030.63
2022-07-28T01:48:12.150Z,149031.84
2022-07-28T01:49:14.279Z,149019.72
2022-07-28T01:50:18.121Z,149024.56
2022-07-28T01:51:20.962Z,149002.69
2022-07-28T01:52:23.531Z,148990.56
2022-07-28T01:53:26.183Z,148983.28
2022-07-28T01:54:30.514Z,148968.66
2022-07-28T01:55:34.090Z,148963.81
2022-07-28T01:56:36.803Z,148955.31
2022-07-28T01:57:39.059Z,148944.41
2022-07-28T01:58:43.447Z,148942.00
2022-07-28T01:59:45.545Z,148937.09
2022-07-28T02:00:51.274Z,148933.44
2022-07-28T02:01:54.489Z,148932.22
2022-07-28T02:02:57.147Z,148932.22
2022-07-28T02:04:00.270Z,148934.66
2022-07-28T02:05:03.229Z,148931.03
2022-07-28T02:06:06.369Z,148907.97
2022-07-28T02:07:08.917Z,148924.97
2022-07-28T02:08:12.210Z,148944.41
2022-07-28T02:09:14.320Z,148939.56
2022-07-28T02:10:17.984Z,148948.06
2022-07-28T02:11:38.951Z,148957.75
2022-07-28T02:12:43.373Z,148968.66
2022-07-28T02:13:46.819Z,148985.69
2022-07-28T02:14:49.569Z,148989.34
2022-07-28T02:15:52.971Z,148979.63
2022-07-28T02:16:58.989Z,148976.00
2022-07-28T02:18:02.450Z,148960.19
2022-07-28T02:19:05.510Z,148963.81
2022-07-28T02:20:09.532Z,148963.81
2022-07-28T02:21:12.278Z,148954.13
2022-07-28T02:22:15.094Z,148946.84
2022-07-28T02:23:17.115Z,148937.09
2022-07-28T02:24:21.196Z,148937.09
2022-07-28T02:25:23.365Z,148949.25
2022-07-28T02:26:32.162Z,148946.84
2022-07-28T02:27:36.453Z,148944.41
2022-07-28T02:28:42.942Z,148915.25
2022-07-28T02:29:51.209Z,148928.59
2022-07-28T02:31:16.212Z,148945.63
2022-07-28T02:32:33.076Z,148963.81
2022-07-28T02:33:59.641Z,148958.97
2022-07-28T02:35:04.695Z,148966.25
2022-07-28T02:36:20.150Z,148971.09
2022-07-28T02:37:23.200Z,148972.34
2022-07-28T02:38:30.010Z,148974.78
2022-07-28T02:39:39.678Z,148988.13
2022-07-28T02:40:44.210Z,148996.63
2022-07-28T02:41:49.224Z,148984.50
2022-07-28T02:42:52.473Z,148974.78
2022-07-28T02:43:58.051Z,148966.25
2022-07-28T02:45:01.685Z,148956.53
2022-07-28T02:46:06.540Z,148966.25
2022-07-28T02:47:12.402Z,148958.97
2022-07-28T02:48:17.401Z,148949.25
2022-07-28T02:49:21.626Z,148927.38
2022-07-28T02:50:26.205Z,148944.41
2022-07-28T02:51:29.234Z,148956.53
2022-07-28T02:52:32.925Z,148961.41
2022-07-28T02:53:35.359Z,148956.53
2022-07-28T02:54:38.117Z,148957.75
2022-07-28T02:55:40.401Z,148932.22
2022-07-28T02:56:42.694Z,148946.84
2022-07-28T02:57:57.199Z,148951.69
2022-07-28T02:58:59.966Z,148963.81
2022-07-28T03:00:02.431Z,148984.50
2022-07-28T03:01:04.749Z,149024.56
2022-07-28T03:02:08.045Z,149029.41
2022-07-28T03:03:10.715Z,149039.19
2022-07-28T03:04:14.975Z,149056.16
2022-07-28T03:05:17.684Z,149063.44
2022-07-28T03:06:20.313Z,149065.88
2022-07-28T03:07:31.953Z,149078.06
2022-07-28T03:08:34.005Z,149069.50
2022-07-28T03:09:39.820Z,149073.19
2022-07-28T03:10:41.945Z,149061.00
2022-07-28T03:11:53.239Z,149073.19
2022-07-28T03:12:57.058Z,149080.47
2022-07-28T03:13:59.006Z,149084.13
2022-07-28T03:15:03.918Z,149085.31
2022-07-28T03:16:06.417Z,149093.88
2022-07-28T03:17:08.650Z,149104.84
2022-07-28T03:18:10.681Z,149085.31
2022-07-28T03:19:12.609Z,149092.66
2022-07-28T03:20:14.640Z,149073.19
2022-07-28T03:21:16.630Z,149068.28
2022-07-28T03:22:18.703Z,149090.19
2022-07-28T03:23:21.205Z,149116.97
2022-07-28T03:24:24.155Z,149124.25
2022-07-28T03:25:39.216Z,149127.91
2022-07-28T03:26:42.963Z,149158.28
2022-07-28T03:27:46.842Z,149168.00
2022-07-28T03:28:51.678Z,149172.88
2022-07-28T03:30:04.550Z,149189.88
2022-07-28T03:31:09.524Z,149204.50
2022-07-28T03:32:12.598Z,149200.81
2022-07-28T03:33:14.993Z,149210.56
2022-07-28T03:34:17.351Z,149216.63
2022-07-28T03:35:19.730Z,149202.06
2022-07-28T03:36:24.429Z,149222.69
2022-07-28T03:37:53.225Z,149243.38
2022-07-28T03:39:00.724Z,149250.66
2022-07-28T03:40:04.427Z,149273.78
2022-07-28T03:41:08.063Z,149287.13
2022-07-28T03:42:11.182Z,149294.41
2022-07-28T03:43:14.093Z,149304.19
2022-07-28T03:44:26.936Z,149313.91
2022-07-28T03:45:31.217Z,149333.41
2022-07-28T03:46:33.740Z,149340.69
2022-07-28T03:47:35.800Z,149347.97
2022-07-28T03:48:37.816Z,149345.56
2022-07-28T03:49:39.925Z,149352.84
2022-07-28T03:50:42.152Z,149357.69
2022-07-28T03:51:44.166Z,149374.75
2022-07-28T03:52:46.112Z,149384.47
2022-07-28T03:53:48.744Z,149389.31
2022-07-28T03:54:50.728Z,149392.97
2022-07-28T03:55:53.565Z,149394.19
2022-07-28T03:56:55.724Z,149402.72
2022-07-28T03:57:58.026Z,149397.81
2022-07-28T03:59:00.090Z,149397.81
2022-07-28T04:00:06.115Z,149408.78
2022-07-28T04:01:13.960Z,149401.50
2022-07-28T04:02:15.998Z,149408.78
2022-07-28T04:03:35.841Z,149408.78
2022-07-28T04:04:40.802Z,149425.78
2022-07-28T04:05:42.766Z,149440.41
2022-07-28T04:06:44.725Z,149442.84
2022-07-28T04:07:47.214Z,149455.00
2022-07-28T04:08:49.213Z,149453.78
2022-07-28T04:09:51.208Z,149464.75
2022-07-28T04:10:53.755Z,149467.19
2022-07-28T04:11:55.731Z,149479.31
2022-07-28T04:12:59.641Z,149495.13
2022-07-28T04:14:01.640Z,149485.41
2022-07-28T04:15:03.720Z,149451.34
2022-07-28T04:16:06.902Z,149491.47
2022-07-28T04:17:09.168Z,149493.91
2022-07-28T04:18:11.801Z,149493.91
2022-07-28T04:19:14.457Z,149510.97
2022-07-28T04:20:17.612Z,149525.53
2022-07-28T04:21:19.627Z,149526.75
2022-07-28T04:22:21.602Z,149450.13
2022-07-28T04:23:24.142Z,149482.97
2022-07-28T04:24:26.177Z,149527.97
2022-07-28T04:25:28.433Z,149526.75
2022-07-28T04:26:30.392Z,149529.22
2022-07-28T04:27:32.389Z,149551.09
2022-07-28T04:28:34.376Z,149554.75
2022-07-28T04:29:36.447Z,149552.31
2022-07-28T04:30:43.972Z,149570.63
2022-07-28T04:31:46.859Z,149571.84
2022-07-28T04:32:49.528Z,149579.13
2022-07-28T04:33:51.483Z,149570.63
2022-07-28T04:34:53.449Z,149562.13
2022-07-28T04:35:55.507Z,149542.59
2022-07-28T04:36:58.388Z,149552.31
2022-07-28T04:38:01.105Z,149564.56
2022-07-28T04:39:03.363Z,149553.53
2022-07-28T04:40:05.970Z,149579.13
2022-07-28T04:41:08.085Z,149518.25
2022-07-28T04:42:10.034Z,149510.97
2022-07-28T04:43:12.021Z,149479.31
2022-07-28T04:44:14.278Z,149419.72
2022-07-28T04:45:16.871Z,149493.91
2022-07-28T04:46:19.219Z,149514.59
2022-07-28T04:47:21.769Z,149508.53
2022-07-28T04:48:24.212Z,149540.16
2022-07-28T04:49:26.209Z,149566.97
2022-07-28T04:50:29.995Z,149592.50
2022-07-28T04:51:35.685Z,149615.63
2022-07-28T04:52:38.362Z,149624.13
2022-07-28T04:53:40.434Z,149654.56
2022-07-28T04:54:42.412Z,149674.03
2022-07-28T04:55:44.716Z,149666.75
2022-07-28T04:56:46.684Z,149657.00
2022-07-28T04:57:49.656Z,149682.56
2022-07-28T04:58:51.651Z,149697.19
2022-07-28T04:59:54.440Z,149715.41
2022-07-28T05:00:58.865Z,149698.41
2022-07-28T05:02:01.375Z,149710.56
2022-07-28T05:03:04.284Z,149734.91
2022-07-28T05:04:06.416Z,149761.69
2022-07-28T05:05:09.844Z,149764.13
2022-07-28T05:06:12.020Z,149766.56
2022-07-28T05:07:14.034Z,149792.19
2022-07-28T05:08:16.020Z,149795.81
2022-07-28T05:09:18.207Z,149803.13
2022-07-28T05:10:20.682Z,149832.34
2022-07-28T05:11:22.652Z,149849.34
2022-07-28T05:12:24.635Z,149864.00
2022-07-28T05:13:31.848Z,149850.56
2022-07-28T05:14:35.856Z,149862.78
2022-07-28T05:15:37.830Z,149860.34
2022-07-28T05:16:39.905Z,149883.44
2022-07-28T05:17:42.544Z,149885.88
2022-07-28T05:18:45.033Z,149890.78
2022-07-28T05:19:47.084Z,149900.53
2022-07-28T05:20:49.033Z,149902.94
2022-07-28T05:21:51.099Z,149905.38
2022-07-28T05:22:57.338Z,149902.94
2022-07-28T05:23:59.278Z,149899.31
2022-07-28T05:25:01.237Z,149904.16
2022-07-28T05:26:04.631Z,149913.91
2022-07-28T05:27:06.653Z,149922.41
2022-07-28T05:28:08.671Z,149922.41
2022-07-28T05:29:10.734Z,149924.88
2022-07-28T05:30:13.471Z,149941.91
2022-07-28T05:31:15.522Z,149955.28
2022-07-28T05:32:18.124Z,149963.84
2022-07-28T05:33:20.303Z,149968.72
2022-07-28T05:34:22.338Z,149946.78
2022-07-28T05:35:24.394Z,149946.78
2022-07-28T05:36:26.901Z,149916.31
2022-07-28T05:37:29.173Z,149922.41
2022-07-28T05:38:31.587Z,149940.69
2022-07-28T05:39:33.614Z,149965.06
2022-07-28T05:40:35.545Z,149924.88
2022-07-28T05:41:37.792Z,149930.97
2022-07-28T05:42:40.714Z,149977.22
2022-07-28T05:43:42.734Z,149966.28
2022-07-28T05:44:44.744Z,149995.56
2022-07-28T05:45:47.395Z,149945.56
2022-07-28T05:46:49.518Z,149955.28
2022-07-28T05:47:52.599Z,149985.72
2022-07-28T05:48:54.947Z,149968.72
2022-07-28T05:50:00.995Z,150034.53
2022-07-28T05:51:03.053Z,150107.59
2022-07-28T05:52:05.109Z,150071.06
2022-07-28T05:53:07.108Z,150080.78
2022-07-28T05:54:09.278Z,150111.25
2022-07-28T05:55:12.154Z,150197.81
2022-07-28T05:56:14.202Z,150259.97
2022-07-28T05:57:16.222Z,150302.63
2022-07-28T05:58:21.640Z,150305.06
2022-07-28T05:59:23.592Z,150353.84
2022-07-28T06:00:25.756Z,150389.22
2022-07-28T06:01:27.780Z,150402.63
2022-07-28T06:02:29.904Z,150370.88
2022-07-28T06:03:34.256Z,150346.50
2022-07-28T06:04:39.080Z,150408.72
2022-07-28T06:05:59.440Z,150490.41
2022-07-28T06:07:03.047Z,150501.38
2022-07-28T06:08:05.158Z,150505.03
2022-07-28T06:09:07.164Z,150508.69
2022-07-28T06:10:09.320Z,150516.03
2022-07-28T06:11:21.622Z,150485.56
2022-07-28T06:12:24.876Z,150513.56
2022-07-28T06:13:27.314Z,150528.22
2022-07-28T06:14:29.285Z,150592.91
2022-07-28T06:15:31.272Z,150623.41
2022-07-28T06:16:33.311Z,150663.63
2022-07-28T06:17:35.487Z,150695.38
2022-07-28T06:18:37.521Z,150733.19
2022-07-28T06:19:39.469Z,150684.41
2022-07-28T06:20:41.469Z,150727.09
2022-07-28T06:21:43.529Z,150714.91
2022-07-28T06:22:46.631Z,150691.72
2022-07-28T06:23:48.655Z,150729.53
2022-07-28T06:24:50.631Z,150793.00
2022-07-28T06:25:52.937Z,150784.47
2022-07-28T06:26:55.556Z,150844.28
2022-07-28T06:27:59.518Z,150856.47
2022-07-28T06:29:01.481Z,150822.31
2022-07-28T06:30:03.614Z,150895.53
2022-07-28T06:31:05.613Z,150912.63
2022-07-28T06:32:07.707Z,150920.00
2022-07-28T06:33:13.912Z,150998.09
2022-07-28T06:34:18.947Z,150994.44
2022-07-28T06:35:25.197Z,151044.50
2022-07-28T06:36:27.182Z,151054.25
2022-07-28T06:37:29.134Z,151176.44
2022-07-28T06:38:32.103Z,151247.28
2022-07-28T06:39:34.069Z,151304.75
2022-07-28T06:40:36.177Z,151310.84
2022-07-28T06:41:41.548Z,151352.34
2022-07-28T06:42:44.179Z,151308.41
2022-07-28T06:43:46.431Z,151310.84
2022-07-28T06:44:58.783Z,151318.16
2022-07-28T06:46:01.113Z,151412.28
2022-07-28T06:47:03.190Z,151343.81
2022-07-28T06:48:05.303Z,151363.34
2022-07-28T06:49:07.560Z,151189.84
2022-07-28T06:50:26.017Z,151237.47
2022-07-28T06:51:29.361Z,151320.59
2022-07-28T06:52:32.024Z,151341.38
2022-07-28T06:53:34.737Z,151360.91
2022-07-28T06:54:37.180Z,151496.56
2022-07-28T06:55:39.280Z,151442.84
2022-07-28T06:56:43.584Z,151381.69
2022-07-28T06:57:51.510Z,151562.56
2022-07-28T06:58:53.789Z,151393.88
2022-07-28T06:59:55.872Z,151364.56
2022-07-28T07:00:58.062Z,151517.38
2022-07-28T07:02:01.896Z,151670.22
2022-07-28T07:03:04.056Z,151793.72
2022-07-28T07:04:08.249Z,151768.09
2022-07-28T07:05:11.507Z,151816.97
2022-07-28T07:06:13.539Z,151910.00
2022-07-28T07:07:17.070Z,151846.34
2022-07-28T07:08:20.848Z,151814.53
2022-07-28T07:09:23.172Z,151716.66
2022-07-28T07:10:25.322Z,151675.09
2022-07-28T07:11:27.381Z,151797.41
2022-07-28T07:12:29.432Z,151772.97
2022-07-28T07:13:32.890Z,151943.00
2022-07-28T07:14:35.152Z,152040.94
2022-07-28T07:15:37.196Z,151826.75
2022-07-28T07:16:39.323Z,151809.66
2022-07-28T07:17:42.120Z,151961.34
2022-07-28T07:18:44.225Z,152059.25
2022-07-28T07:19:46.260Z,152073.97
2022-07-28T07:20:49.043Z,152187.78
2022-07-28T07:21:51.141Z,152251.44
2022-07-28T07:22:53.238Z,152121.66
2022-07-28T07:23:55.574Z,152211.06
2022-07-28T07:24:57.991Z,152220.84
2022-07-28T07:26:00.252Z,152213.50
2022-07-28T07:27:02.407Z,152220.84
2022-07-28T07:28:04.658Z,152277.16
2022-07-28T07:29:07.374Z,152273.50
2022-07-28T07:30:10.201Z,152291.81
2022-07-28T07:31:12.324Z,152326.19
2022-07-28T07:32:14.391Z,152103.34
2022-07-28T07:33:16.579Z,152122.88
2022-07-28T07:34:18.731Z,152154.69
2022-07-28T07:35:21.591Z,152005.41
2022-07-28T07:36:23.735Z,151870.84
2022-07-28T07:37:25.945Z,152000.53
2022-07-28T07:38:29.356Z,151995.63
2022-07-28T07:39:31.975Z,151934.47
2022-07-28T07:40:34.013Z,151922.19
2022-07-28T07:41:36.188Z,152056.81
2022-07-28T07:42:40.172Z,152077.63
2022-07-28T07:43:45.876Z,152073.97
2022-07-28T07:44:50.112Z,152114.34
2022-07-28T07:45:52.371Z,152142.47
2022-07-28T07:46:54.580Z,152144.94
2022-07-28T07:47:56.665Z,152209.84
2022-07-28T07:48:58.726Z,152222.06
2022-07-28T07:50:04.149Z,152242.88
2022-07-28T07:51:08.815Z,152300.47
2022-07-28T07:52:17.470Z,152376.38
2022-07-28T07:53:19.610Z,152378.81
2022-07-28T07:54:21.877Z,152313.91
2022-07-28T07:55:24.205Z,152356.75
2022-07-28T07:56:26.443Z,152355.53
2022-07-28T07:57:29.853Z,152410.63
2022-07-28T07:58:31.932Z,152558.88
2022-07-28T07:59:34.109Z,152612.78
2022-07-28T08:00:36.095Z,152538.03
2022-07-28T08:01:40.525Z,152475.59
2022-07-28T08:02:43.029Z,152328.63
2022-07-28T08:03:46.257Z,152264.94
2022-07-28T08:04:52.622Z,152350.66
2022-07-28T08:05:56.770Z,152350.66
2022-07-28T08:06:59.657Z,152171.91
2022-07-28T08:08:02.413Z,152169.47
2022-07-28T08:09:04.416Z,152162.13
2022-07-28T08:10:07.211Z,152026.22
2022-07-28T08:11:11.193Z,151934.47
2022-07-28T08:12:13.307Z,151963.81
2022-07-28T08:13:15.317Z,151917.31
2022-07-28T08:14:17.977Z,151802.31
2022-07-28T08:15:20.414Z,151794.94
2022-07-28T08:16:22.519Z,151731.38
2022-07-28T08:17:26.129Z,151858.56
2022-07-28T08:18:28.494Z,151894.06
2022-07-28T08:19:30.541Z,151809.66
2022-07-28T08:20:32.540Z,151905.09
2022-07-28T08:21:34.581Z,151976.03
2022-07-28T08:22:46.993Z,151983.38
2022-07-28T08:23:48.983Z,151917.31
2022-07-28T08:24:51.167Z,151868.38
2022-07-28T08:25:53.611Z,151870.84
2022-07-28T08:26:55.828Z,151836.56
2022-07-28T08:27:57.900Z,151865.94
2022-07-28T08:28:59.901Z,151890.41
2022-07-28T08:30:02.869Z,151809.66
2022-07-28T08:31:04.965Z,151741.19
2022-07-28T08:32:07.327Z,151673.88
2022-07-28T08:33:09.283Z,151582.19
2022-07-28T08:34:31.478Z,151562.56
2022-07-28T08:35:35.306Z,151491.69
2022-07-28T08:36:37.684Z,151540.59
2022-07-28T08:37:40.006Z,151538.16
2022-07-28T08:38:42.080Z,151550.38
2022-07-28T08:39:44.075Z,151534.50
2022-07-28T08:40:48.499Z,151525.91
2022-07-28T08:41:59.804Z,151535.72
2022-07-28T08:43:04.763Z,151485.59
2022-07-28T08:44:08.398Z,151423.28
2022-07-28T08:45:10.930Z,151484.38
2022-07-28T08:46:13.671Z,151474.59
2022-07-28T08:47:16.093Z,151413.50
2022-07-28T08:48:19.822Z,151413.50
2022-07-28T08:49:22.094Z,151419.59
2022-07-28T08:50:24.701Z,151389.00
2022-07-28T08:51:27.408Z,151398.78
2022-07-28T08:52:29.846Z,151356.03
2022-07-28T08:53:32.097Z,151349.91
2022-07-28T08:54:34.408Z,151357.25
2022-07-28T08:55:36.892Z,151304.75
2022-07-28T08:56:41.011Z,151347.47
2022-07-28T08:57:50.214Z,151291.28
2022-07-28T08:58:52.387Z,151288.84
2022-07-28T08:59:54.800Z,151298.59
2022-07-28T09:00:56.859Z,151346.25
2022-07-28T09:01:59.032Z,151352.34
2022-07-28T09:03:03.256Z,151376.81
2022-07-28T09:04:06.914Z,151396.31
2022-07-28T09:05:09.401Z,151411.00
2022-07-28T09:06:11.861Z,151442.84
2022-07-28T09:07:14.900Z,151418.38
2022-07-28T09:08:19.736Z,151376.81
2022-07-28T09:09:22.452Z,151391.44
2022-07-28T09:10:24.590Z,151430.59
2022-07-28T09:11:29.793Z,151479.50
2022-07-28T09:12:35.438Z,151513.72
2022-07-28T09:13:38.341Z,151544.25
2022-07-28T09:14:40.997Z,151503.94
2022-07-28T09:15:46.146Z,151486.81
2022-07-28T09:16:48.470Z,151437.97
2022-07-28T09:17:50.455Z,151462.34
2022-07-28T09:18:52.448Z,151503.94
2022-07-28T09:19:54.510Z,151506.38
2022-07-28T09:20:56.577Z,151478.28
2022-07-28T09:21:58.925Z,151508.81
2022-07-28T09:23:01.938Z,151529.56
2022-07-28T09:24:04.037Z,151467.25
2022-07-28T09:25:17.863Z,151470.94
2022-07-28T09:26:19.912Z,151499.00
2022-07-28T09:27:21.873Z,151563.78
2022-07-28T09:28:24.609Z,151596.84
2022-07-28T09:29:26.597Z,151623.75
2022-07-28T09:30:32.677Z,151636.00
2022-07-28T09:31:34.837Z,151567.50
2022-07-28T09:32:36.853Z,151396.31
2022-07-28T09:33:43.076Z,151442.84
2022-07-28T09:34:46.886Z,151545.50
2022-07-28T09:35:53.330Z,151528.34
2022-07-28T09:36:55.344Z,151574.88
2022-07-28T09:38:00.334Z,151591.97
2022-07-28T09:39:02.744Z,151604.22
2022-07-28T09:40:11.897Z,151633.56
2022-07-28T09:41:14.602Z,151716.66
2022-07-28T09:42:20.098Z,151673.88
2022-07-28T09:43:34.969Z,151699.56
2022-07-28T09:44:37.002Z,151804.78
2022-07-28T09:45:39.128Z,151850.00
2022-07-28T09:46:41.215Z,151928.31
2022-07-28T09:47:43.580Z,151985.81
2022-07-28T09:48:49.105Z,151907.53
2022-07-28T09:49:51.860Z,151935.69
2022-07-28T09:51:09.113Z,152020.13
2022-07-28T09:52:11.174Z,152000.53
2022-07-28T09:53:23.377Z,152065.41
2022-07-28T09:54:25.578Z,152160.91
2022-07-28T09:55:27.526Z,152171.91
2022-07-28T09:56:31.128Z,152162.13
2022-07-28T09:57:34.316Z,152174.34
2022-07-28T09:58:40.774Z,152256.34
2022-07-28T09:59:48.422Z,152256.34
2022-07-28T10:01:03.491Z,152322.47
2022-07-28T10:02:05.908Z,152348.19
2022-07-28T10:03:10.233Z,152431.47
2022-07-28T10:04:12.856Z,152402.09
2022-07-28T10:05:16.313Z,152344.53
2022-07-28T10:06:24.337Z,152492.75
2022-07-28T10:07:28.513Z,152533.16
2022-07-28T10:08:41.999Z,152556.38
2022-07-28T10:09:44.543Z,152592.00
2022-07-28T10:10:59.488Z,152262.50
2022-07-28T10:12:13.611Z,152335.97
2022-07-28T10:13:15.638Z,152482.91
2022-07-28T10:14:21.435Z,152482.91
2022-07-28T10:15:48.218Z,152458.47
2022-07-28T10:16:53.512Z,152653.19
2022-07-28T10:17:55.607Z,152698.56
2022-07-28T10:18:59.479Z,152691.22
2022-07-28T10:20:03.365Z,152892.25
2022-07-28T10:21:07.967Z,152775.78
2022-07-28T10:22:10.325Z,152957.19
2022-07-28T10:23:12.806Z,153083.47
2022-07-28T10:24:20.809Z,152982.97
2022-07-28T10:25:24.083Z,153084.69
2022-07-28T10:26:30.924Z,153203.69
2022-07-28T10:27:33.374Z,153260.16
2022-07-28T10:28:41.946Z,153250.34
2022-07-28T10:29:45.602Z,153325.16
2022-07-28T10:30:49.354Z,153184.03
2022-07-28T10:31:52.480Z,153215.94
2022-07-28T10:32:55.990Z,153201.25
2022-07-28T10:33:59.181Z,153269.94
2022-07-28T10:35:04.998Z,153278.53
2022-07-28T10:36:07.318Z,153299.38
2022-07-28T10:37:10.372Z,153214.72
2022-07-28T10:38:12.857Z,153173.03
2022-07-28T10:39:18.654Z,152979.28
2022-07-28T10:40:26.698Z,153071.22
2022-07-28T10:41:32.089Z,152669.16
2022-07-28T10:42:35.489Z,152703.44
2022-07-28T10:43:42.971Z,152678.94
2022-07-28T10:44:48.035Z,152877.50
2022-07-28T10:46:07.519Z,152940.03
2022-07-28T10:47:18.124Z,152516.00
2022-07-28T10:48:23.645Z,152658.13
2022-07-28T10:49:32.688Z,152865.28
2022-07-28T10:50:35.531Z,152865.28
2022-07-28T10:52:00.186Z,152914.28
2022-07-28T10:53:04.631Z,152919.16
2022-07-28T10:54:28.202Z,153002.59
2022-07-28T10:55:33.289Z,153100.69
2022-07-28T10:56:45.948Z,153097.03
2022-07-28T10:58:10.891Z,153149.72
2022-07-28T10:59:32.580Z,153106.81
2022-07-28T11:00:54.609Z,153109.28
2022-07-28T11:01:58.006Z,153230.72
2022-07-28T11:03:02.163Z,153348.47
2022-07-28T11:04:34.305Z,153379.13
2022-07-28T11:05:39.354Z,153306.75
2022-07-28T11:06:45.819Z,153422.09
2022-07-28T11:07:47.851Z,153586.59
2022-07-28T11:08:52.503Z,153714.25
2022-07-28T11:10:14.552Z,153720.41
2022-07-28T11:11:36.506Z,153600.06
2022-07-28T11:12:49.043Z,153543.56
2022-07-28T11:13:52.516Z,153679.81
2022-07-28T11:14:54.730Z,153790.34
2022-07-28T11:16:18.642Z,153827.22
2022-07-28T11:17:24.278Z,153996.66
2022-07-28T11:18:26.779Z,154094.97
2022-07-28T11:19:40.348Z,154028.59
2022-07-28T11:20:52.661Z,154124.44
2022-07-28T11:22:13.084Z,154091.28
2022-07-28T11:23:35.773Z,154278.06
2022-07-28T11:25:19.648Z,154161.31
2022-07-28T11:26:23.567Z,154176.03
2022-07-28T11:27:46.017Z,154310.03
2022-07-28T11:28:57.256Z,154026.16
2022-07-28T11:29:59.200Z,153965.97
2022-07-28T11:31:01.360Z,154151.47
2022-07-28T11:32:03.939Z,154061.81
2022-07-28T11:33:07.143Z,154018.78
2022-07-28T11:34:09.224Z,154052.00
2022-07-28T11:35:11.324Z,154158.88
2022-07-28T11:36:13.300Z,154011.44
2022-07-28T11:37:15.532Z,154026.16
2022-07-28T11:38:17.762Z,154053.22
2022-07-28T11:39:23.293Z,153832.13
2022-07-28T11:40:44.435Z,153618.50
2022-07-28T11:41:46.447Z,153495.75
2022-07-28T11:42:48.430Z,153488.38
2022-07-28T11:43:51.087Z,153391.44
2022-07-28T11:44:54.410Z,153274.84
2022-07-28T11:46:02.442Z,153249.09
2022-07-28T11:47:21.316Z,153287.16
2022-07-28T11:48:23.458Z,153225.81
2022-07-28T11:49:27.610Z,153250.34
2022-07-28T11:50:30.414Z,153217.25
2022-07-28T11:51:38.803Z,153212.25
2022-07-28T11:52:54.485Z,153174.25
2022-07-28T11:53:56.568Z,153144.81
2022-07-28T11:54:58.652Z,153029.56
2022-07-28T11:56:03.330Z,153067.56
2022-07-28T11:57:07.614Z,153024.66
2022-07-28T11:58:23.193Z,153063.88
2022-07-28T11:59:36.598Z,152906.94
2022-07-28T12:00:39.806Z,152822.34
2022-07-28T12:01:51.084Z,152841.97
2022-07-28T12:02:53.251Z,153002.59
2022-07-28T12:03:56.768Z,153093.34
2022-07-28T12:05:04.253Z,153169.34
2022-07-28T12:06:06.885Z,153272.41
2022-07-28T12:07:09.947Z,153473.66
2022-07-28T12:08:11.942Z,153701.97
2022-07-28T12:09:14.861Z,153839.47
2022-07-28T12:10:43.902Z,153692.13
2022-07-28T12:11:53.949Z,153717.94
2022-07-28T12:12:57.304Z,153747.41
2022-07-28T12:14:02.851Z,153689.66
2022-07-28T12:15:07.371Z,153608.66
2022-07-28T12:16:09.834Z,153689.66
2022-07-28T12:17:12.327Z,153547.25
2022-07-28T12:18:14.705Z,153613.53